Alpine, Montana
Current Conditions -  °F | °C
As of 5:35 PM on Saturday 20 Dec 2014 (Local Time) from KPOY Reporting Station
Broken Clouds Broken Clouds  
Wind Chill: 18°   Ceiling: 12000
Heat Index: 28°   Visibility: 10mi
Dew Point: 19°   Wind: 13mph
Humidity: 69%   Direction: 160°SSE
Pressure: 29.81"   Gusts: NA
Location:  45.3708°N, 109.409°W
Report Text: KPOY 210035Z AUTO 16011KT 10SM BKN120 M02/M07 A2981 RMK AO2
Loading
Personal Weather Stations






























Interactive Weather Map New forecast layout! Learn more

10-Day Weather Forecast

Advertisements
Track Severe Weather on mobile